createdAt,value
2024-01-06T00:00:05.931Z,99931.19
2024-01-06T00:02:32.417Z,99931.03
2024-01-06T00:04:58.869Z,99938.19
2024-01-06T00:07:25.302Z,99942.00
2024-01-06T00:09:51.942Z,99942.97
2024-01-06T00:12:19.696Z,99943.13
2024-01-06T00:14:46.340Z,99937.72
2024-01-06T00:17:12.955Z,99945.03
2024-01-06T00:19:39.477Z,99942.00
2024-01-06T00:22:05.953Z,99937.72
2024-01-06T00:24:32.566Z,99936.28
2024-01-06T00:26:58.972Z,99934.06
2024-01-06T00:29:25.416Z,99932.47
2024-01-06T00:31:51.820Z,99931.22
2024-01-06T00:34:18.418Z,99936.91
2024-01-06T00:36:45.044Z,99947.44
2024-01-06T00:39:11.625Z,99941.53
2024-01-06T00:41:38.030Z,99939.63
2024-01-06T00:44:04.604Z,99947.13
2024-01-06T00:46:31.013Z,99934.38
2024-01-06T00:48:57.580Z,99940.75
2024-01-06T00:51:24.178Z,99938.03
2024-01-06T00:53:50.669Z,99936.91
2024-01-06T00:56:17.087Z,99940.28
2024-01-06T00:58:43.553Z,99939.16
2024-01-06T01:01:10.077Z,99944.72
2024-01-06T01:03:36.668Z,99952.69
2024-01-06T01:06:03.394Z,99949.34
2024-01-06T01:08:29.856Z,99958.75
2024-01-06T01:10:56.243Z,99964.31
2024-01-06T01:13:22.854Z,99964.94
2024-01-06T01:15:49.735Z,99959.53
2024-01-06T01:18:16.450Z,99964.16
2024-01-06T01:20:42.994Z,99965.88
2024-01-06T01:23:09.542Z,99968.28
2024-01-06T01:25:36.010Z,99970.81
2024-01-06T01:28:03.353Z,99969.25
2024-01-06T01:30:29.953Z,99974.66
2024-01-06T01:32:56.581Z,99985.00
2024-01-06T01:35:23.059Z,99992.47
2024-01-06T01:37:49.752Z,99988.84
2024-01-06T01:40:16.263Z,99985.00
2024-01-06T01:42:44.394Z,99988.50
2024-01-06T01:45:12.932Z,99994.06
2024-01-06T01:47:40.653Z,99991.38
2024-01-06T01:50:08.837Z,100002.81
2024-01-06T01:52:36.974Z,100010.50
2024-01-06T01:55:03.900Z,100000.47
2024-01-06T01:57:30.528Z,100003.63
2024-01-06T01:59:58.021Z,100002.34
2024-01-06T02:02:24.706Z,100002.34
2024-01-06T02:04:51.232Z,100002.66
2024-01-06T02:07:17.945Z,100005.53
2024-01-06T02:09:44.516Z,100011.59
2024-01-06T02:12:11.074Z,100004.28
2024-01-06T02:14:37.596Z,100001.25
2024-01-06T02:17:04.352Z,100009.97
2024-01-06T02:19:30.873Z,100011.09
2024-01-06T02:21:57.384Z,100016.19
2024-01-06T02:24:23.893Z,100012.06
2024-01-06T02:26:50.437Z,100021.94
2024-01-06T02:29:16.931Z,100027.19
2024-01-06T02:31:43.559Z,100018.13
2024-01-06T02:34:10.168Z,100020.66
2024-01-06T02:36:36.704Z,100023.50
2024-01-06T02:39:03.283Z,100023.69
2024-01-06T02:41:29.750Z,100019.06
2024-01-06T02:43:57.425Z,100024.63
2024-01-06T02:46:23.864Z,100022.72
2024-01-06T02:48:50.394Z,100016.84
2024-01-06T02:51:17.015Z,100008.72
2024-01-06T02:53:43.544Z,100009.53
2024-01-06T02:56:13.531Z,100018.88
2024-01-06T02:58:40.391Z,100012.06
2024-01-06T03:01:07.038Z,100022.09
2024-01-06T03:03:33.756Z,100021.44
2024-01-06T03:06:01.042Z,100032.41
2024-01-06T03:08:27.893Z,100033.69
2024-01-06T03:10:54.329Z,100026.88
2024-01-06T03:13:20.827Z,100041.03
2024-01-06T03:15:47.430Z,100040.38
2024-01-06T03:18:14.035Z,100042.78
2024-01-06T03:20:40.609Z,100044.69
2024-01-06T03:23:07.040Z,100046.72
2024-01-06T03:25:33.483Z,100048.34
2024-01-06T03:27:59.899Z,100044.50
2024-01-06T03:30:26.473Z,100049.75
2024-01-06T03:32:53.099Z,100048.47
2024-01-06T03:35:19.581Z,100052.44
2024-01-06T03:37:46.076Z,100053.41
2024-01-06T03:40:13.025Z,100050.69
2024-01-06T03:42:39.429Z,100047.50
2024-01-06T03:45:06.308Z,100044.97
2024-01-06T03:47:32.798Z,100050.03
2024-01-06T03:49:59.228Z,100049.13
2024-01-06T03:52:25.811Z,100052.44
2024-01-06T03:54:52.339Z,100052.59
2024-01-06T03:57:18.801Z,100050.06
2024-01-06T03:59:45.234Z,100058.81
2024-01-06T04:02:11.673Z,100058.28
2024-01-06T04:04:38.118Z,100054.81
2024-01-06T04:07:04.672Z,100065.00
2024-01-06T04:09:31.169Z,100072.16
2024-01-06T04:11:57.659Z,100075.53
2024-01-06T04:14:24.144Z,100076.81
2024-01-06T04:16:50.605Z,100077.13
2024-01-06T04:19:17.172Z,100082.88
2024-01-06T04:21:43.648Z,100087.31
2024-01-06T04:24:10.125Z,100090.97
2024-01-06T04:26:36.547Z,100083.34
2024-01-06T04:29:03.118Z,100090.97
2024-01-06T04:31:29.600Z,100090.19
2024-01-06T04:33:56.261Z,100092.41
2024-01-06T04:36:22.787Z,100086.19
2024-01-06T04:38:49.312Z,100098.75
2024-01-06T04:41:15.721Z,100101.94
2024-01-06T04:43:42.192Z,100108.66
2024-01-06T04:46:08.628Z,100102.13
2024-01-06T04:48:35.293Z,100115.63
2024-01-06T04:51:04.350Z,100112.75
2024-01-06T04:53:30.742Z,100112.09
2024-01-06T04:55:57.143Z,100117.81
2024-01-06T04:58:23.609Z,100113.34
2024-01-06T05:00:52.178Z,100117.00
2024-01-06T05:03:19.283Z,100126.72
2024-01-06T05:05:46.092Z,100131.34
2024-01-06T05:08:12.466Z,100139.78
2024-01-06T05:10:38.983Z,100130.34
2024-01-06T05:13:05.476Z,100140.81
2024-01-06T05:15:31.960Z,100137.84
2024-01-06T05:17:58.435Z,100145.19
2024-01-06T05:20:24.894Z,100148.53
2024-01-06T05:22:51.294Z,100144.72
2024-01-06T05:25:17.845Z,100155.50
2024-01-06T05:27:44.304Z,100149.78
2024-01-06T05:30:11.221Z,100164.56
2024-01-06T05:32:38.946Z,100157.53
2024-01-06T05:35:05.863Z,100153.25
2024-01-06T05:37:33.116Z,100158.84
2024-01-06T05:40:02.516Z,100165.78
2024-01-06T05:42:29.091Z,100170.50
2024-01-06T05:44:56.048Z,100183.13
2024-01-06T05:47:22.881Z,100182.00
2024-01-06T05:49:49.809Z,100196.47
2024-01-06T05:52:16.781Z,100194.56
2024-01-06T05:54:43.666Z,100189.69
2024-01-06T05:57:10.268Z,100198.78
2024-01-06T05:59:36.892Z,100197.16
2024-01-06T06:02:03.492Z,100212.56
2024-01-06T06:04:30.278Z,100210.47
2024-01-06T06:06:59.175Z,100216.84
2024-01-06T06:09:26.633Z,100224.84
2024-01-06T06:11:53.087Z,100231.03
2024-01-06T06:14:19.468Z,100231.28
2024-01-06T06:16:46.059Z,100242.91
2024-01-06T06:19:12.624Z,100233.06
2024-01-06T06:21:39.184Z,100240.28
2024-01-06T06:24:05.951Z,100249.47
2024-01-06T06:26:33.675Z,100252.91
2024-01-06T06:29:00.112Z,100250.31
2024-01-06T06:31:26.682Z,100245.09
2024-01-06T06:33:53.235Z,100247.94
2024-01-06T06:36:19.704Z,100262.97
2024-01-06T06:38:46.293Z,100256.00
2024-01-06T06:41:12.977Z,100266.97
2024-01-06T06:43:39.372Z,100257.69
2024-01-06T06:46:05.874Z,100257.59
2024-01-06T06:48:32.501Z,100255.91
2024-01-06T06:50:58.886Z,100266.91
2024-01-06T06:53:25.264Z,100272.78
2024-01-06T06:55:51.713Z,100276.31
2024-01-06T06:58:18.450Z,100282.56
2024-01-06T07:00:45.160Z,100286.91
2024-01-06T07:03:11.724Z,100302.16
2024-01-06T07:05:38.291Z,100294.91
2024-01-06T07:08:05.142Z,100300.00
2024-01-06T07:10:31.608Z,100304.31
2024-01-06T07:12:58.040Z,100305.41
2024-01-06T07:15:24.543Z,100302.28
2024-01-06T07:17:51.147Z,100304.56
2024-01-06T07:20:17.627Z,100313.09
2024-01-06T07:22:44.893Z,100318.81
2024-01-06T07:25:11.447Z,100318.31
2024-01-06T07:27:37.941Z,100334.06
2024-01-06T07:30:04.861Z,100323.66
2024-01-06T07:32:31.991Z,100330.25
2024-01-06T07:34:58.607Z,100330.81
2024-01-06T07:37:25.155Z,100338.69
2024-01-06T07:39:51.805Z,100331.28
2024-01-06T07:42:19.183Z,100344.00
2024-01-06T07:44:45.634Z,100347.47
2024-01-06T07:47:12.181Z,100358.31
2024-01-06T07:49:38.678Z,100358.31
2024-01-06T07:52:05.234Z,100367.00
2024-01-06T07:54:31.742Z,100372.50
2024-01-06T07:56:58.292Z,100389.13
2024-01-06T07:59:24.900Z,100395.53
2024-01-06T08:01:51.459Z,100389.50
2024-01-06T08:04:17.964Z,100395.31
2024-01-06T08:06:44.991Z,100390.31
2024-01-06T08:09:11.583Z,100397.63
2024-01-06T08:11:38.022Z,100393.31
2024-01-06T08:14:04.428Z,100395.81
2024-01-06T08:16:30.898Z,100398.44
2024-01-06T08:18:57.497Z,100400.50
2024-01-06T08:21:24.007Z,100413.72
2024-01-06T08:23:50.485Z,100406.13
2024-01-06T08:26:16.994Z,100408.94
2024-01-06T08:28:43.490Z,100421.44
2024-01-06T08:31:10.130Z,100432.03
2024-01-06T08:33:36.803Z,100433.34
2024-01-06T08:36:03.674Z,100434.41
2024-01-06T08:38:30.096Z,100442.53
2024-01-06T08:40:56.641Z,100450.31
2024-01-06T08:43:23.097Z,100458.81
2024-01-06T08:45:49.693Z,100465.31
2024-01-06T08:48:16.654Z,100473.56
2024-01-06T08:50:43.535Z,100476.66
2024-01-06T08:53:10.104Z,100474.97
2024-01-06T08:55:36.576Z,100481.97
2024-01-06T08:58:03.138Z,100479.47
2024-01-06T09:00:29.787Z,100485.69
2024-01-06T09:02:56.352Z,100492.19
2024-01-06T09:05:22.841Z,100504.59
2024-01-06T09:07:54.677Z,100497.34
2024-01-06T09:10:21.847Z,100488.06
2024-01-06T09:12:48.969Z,100500.38
2024-01-06T09:15:15.633Z,100500.78
2024-01-06T09:17:42.146Z,100507.94
2024-01-06T09:20:09.085Z,100525.34
2024-01-06T09:22:36.119Z,100514.31
2024-01-06T09:25:02.688Z,100527.16
2024-01-06T09:27:29.180Z,100520.25
2024-01-06T09:29:55.700Z,100529.38
2024-01-06T09:32:24.000Z,100531.69
2024-01-06T09:34:50.621Z,100532.56
2024-01-06T09:37:17.207Z,100528.25
2024-01-06T09:39:44.049Z,100535.44
2024-01-06T09:42:12.580Z,100532.38
2024-01-06T09:44:39.256Z,100539.88
2024-01-06T09:47:07.144Z,100544.53
2024-01-06T09:49:35.939Z,100546.94
2024-01-06T09:52:05.883Z,100549.31
2024-01-06T09:54:37.063Z,100546.94
2024-01-06T09:57:07.153Z,100554.34
2024-01-06T09:59:36.056Z,100554.91
2024-01-06T10:02:04.841Z,100560.75
2024-01-06T10:04:31.534Z,100563.66
2024-01-06T10:06:58.045Z,100565.47
2024-01-06T10:09:29.259Z,100557.38
2024-01-06T10:11:58.011Z,100565.84
2024-01-06T10:14:25.324Z,100569.28
2024-01-06T10:16:53.730Z,100567.66
2024-01-06T10:19:20.747Z,100570.06
2024-01-06T10:21:47.350Z,100567.88
2024-01-06T10:24:14.896Z,100569.22
2024-01-06T10:26:41.550Z,100568.78
2024-01-06T10:29:07.995Z,100567.25
2024-01-06T10:31:34.833Z,100566.22
2024-01-06T10:34:01.605Z,100570.75
2024-01-06T10:36:29.763Z,100569.59
2024-01-06T10:38:56.828Z,100579.31
2024-01-06T10:41:25.043Z,100577.25
2024-01-06T10:43:52.461Z,100585.50
2024-01-06T10:46:23.932Z,100585.66
2024-01-06T10:48:51.404Z,100581.09
2024-01-06T10:51:20.237Z,100590.69
2024-01-06T10:53:48.966Z,100593.31
2024-01-06T10:56:16.808Z,100600.22
2024-01-06T10:58:48.936Z,100597.38
2024-01-06T11:01:19.577Z,100604.19
2024-01-06T11:03:50.128Z,100591.59
2024-01-06T11:06:18.582Z,100588.41
2024-01-06T11:08:58.423Z,100589.09
2024-01-06T11:11:25.599Z,100583.28
2024-01-06T11:13:52.067Z,100583.09
2024-01-06T11:16:38.513Z,100593.06
2024-01-06T11:19:41.236Z,100594.66
2024-01-06T11:22:25.993Z,100594.84
2024-01-06T11:24:54.855Z,100594.25
2024-01-06T11:27:24.805Z,100594.38
2024-01-06T11:29:57.510Z,100593.91
2024-01-06T11:32:28.749Z,100591.72
2024-01-06T11:34:58.571Z,100592.72
2024-01-06T11:37:49.078Z,100592.16
2024-01-06T11:40:21.569Z,100597.63
2024-01-06T11:42:58.429Z,100591.94
2024-01-06T11:45:28.689Z,100596.81
2024-01-06T11:48:00.462Z,100594.88
2024-01-06T11:50:28.056Z,100603.09
2024-01-06T11:52:55.819Z,100602.81
2024-01-06T11:55:22.877Z,100604.41
2024-01-06T11:57:50.924Z,100602.88
2024-01-06T12:00:18.536Z,100598.56
2024-01-06T12:02:45.330Z,100598.56
2024-01-06T12:05:16.702Z,100602.00
2024-01-06T12:07:46.331Z,100598.63
2024-01-06T12:10:12.982Z,100601.13
2024-01-06T12:12:40.020Z,100604.03
2024-01-06T12:15:06.995Z,100605.88
2024-01-06T12:17:33.526Z,100609.44
2024-01-06T12:20:00.471Z,100609.44
2024-01-06T12:22:27.686Z,100614.31
2024-01-06T12:24:54.524Z,100626.16
2024-01-06T12:27:22.676Z,100622.34
2024-01-06T12:29:49.351Z,100619.66
2024-01-06T12:32:15.827Z,100622.34
2024-01-06T12:34:42.527Z,100620.09
2024-01-06T12:37:09.324Z,100618.88
2024-01-06T12:39:35.854Z,100620.81
2024-01-06T12:42:02.718Z,100623.59
2024-01-06T12:44:29.408Z,100618.78
2024-01-06T12:46:56.045Z,100617.19
2024-01-06T12:49:22.923Z,100619.53
2024-01-06T12:51:49.591Z,100626.09
2024-01-06T12:54:16.110Z,100632.22
2024-01-06T12:56:42.754Z,100621.94
2024-01-06T12:59:09.613Z,100629.66
2024-01-06T13:01:36.289Z,100633.88
2024-01-06T13:04:03.089Z,100628.13
2024-01-06T13:06:29.908Z,100627.75
2024-01-06T13:08:56.677Z,100641.19
2024-01-06T13:11:23.762Z,100633.06
2024-01-06T13:13:50.226Z,100642.88
2024-01-06T13:16:16.775Z,100644.19
2024-01-06T13:18:43.487Z,100648.41
2024-01-06T13:21:10.102Z,100656.31
2024-01-06T13:23:36.635Z,100662.63
2024-01-06T13:26:03.174Z,100673.22
2024-01-06T13:28:29.731Z,100682.50
2024-01-06T13:30:56.316Z,100690.59
2024-01-06T13:33:24.042Z,100694.69
2024-01-06T13:35:51.696Z,100696.38
2024-01-06T13:38:18.199Z,100697.00
2024-01-06T13:40:44.713Z,100696.31
2024-01-06T13:43:16.258Z,100698.41
2024-01-06T13:45:44.592Z,100701.72
2024-01-06T13:48:11.397Z,100705.78
2024-01-06T13:50:37.922Z,100709.88
2024-01-06T13:53:04.744Z,100714.41
2024-01-06T13:55:31.304Z,100713.97
2024-01-06T13:57:57.937Z,100708.78
2024-01-06T14:00:25.601Z,100722.94
2024-01-06T14:02:52.174Z,100721.63
2024-01-06T14:05:20.536Z,100731.28
2024-01-06T14:07:49.713Z,100731.41
2024-01-06T14:10:16.733Z,100736.16
2024-01-06T14:12:43.434Z,100739.28
2024-01-06T14:15:10.598Z,100740.81
2024-01-06T14:17:37.206Z,100742.22
2024-01-06T14:20:04.291Z,100746.38
2024-01-06T14:22:30.880Z,100751.31
2024-01-06T14:24:57.405Z,100748.09
2024-01-06T14:27:24.121Z,100747.53
2024-01-06T14:29:50.632Z,100751.09
2024-01-06T14:32:17.110Z,100742.00
2024-01-06T14:34:43.566Z,100740.31
2024-01-06T14:37:10.086Z,100750.09
2024-01-06T14:39:37.932Z,100762.19
2024-01-06T14:42:04.735Z,100762.13
2024-01-06T14:44:31.153Z,100776.34
2024-01-06T14:46:57.623Z,100771.41
2024-01-06T14:49:25.034Z,100773.16
2024-01-06T14:51:51.677Z,100781.75
2024-01-06T14:54:18.260Z,100785.47
2024-01-06T14:56:44.878Z,100787.25
2024-01-06T14:59:11.817Z,100805.03
2024-01-06T15:01:38.663Z,100807.16
2024-01-06T15:04:05.380Z,100808.56
2024-01-06T15:06:31.971Z,100806.94
2024-01-06T15:08:58.441Z,100822.72
2024-01-06T15:11:24.906Z,100820.94
2024-01-06T15:13:51.317Z,100821.47
2024-01-06T15:16:17.946Z,100833.75
2024-01-06T15:18:44.620Z,100825.94
2024-01-06T15:21:11.066Z,100846.94
2024-01-06T15:23:37.613Z,100835.84
2024-01-06T15:26:04.931Z,100834.56
2024-01-06T15:28:33.497Z,100846.75
2024-01-06T15:31:01.311Z,100847.19
2024-01-06T15:33:28.179Z,100850.81
2024-01-06T15:35:54.728Z,100851.63
2024-01-06T15:38:21.264Z,100856.91
2024-01-06T15:40:47.943Z,100863.13
2024-01-06T15:43:14.758Z,100863.47
2024-01-06T15:45:41.798Z,100867.72
2024-01-06T15:48:09.419Z,100869.38
2024-01-06T15:50:36.242Z,100882.38
2024-01-06T15:53:02.830Z,100867.16
2024-01-06T15:55:29.237Z,100877.94
2024-01-06T15:57:55.896Z,100876.53
2024-01-06T16:00:22.560Z,100883.22
2024-01-06T16:02:49.133Z,100888.94
2024-01-06T16:05:16.166Z,100890.47
2024-01-06T16:07:42.742Z,100894.13
2024-01-06T16:10:09.443Z,100894.91
2024-01-06T16:12:39.613Z,100890.34
2024-01-06T16:15:06.872Z,100896.22
2024-01-06T16:17:35.005Z,100900.78
2024-01-06T16:20:05.608Z,100903.78
2024-01-06T16:22:33.601Z,100902.72
2024-01-06T16:25:00.177Z,100906.56
2024-01-06T16:27:26.633Z,100912.50
2024-01-06T16:29:53.351Z,100910.41
2024-01-06T16:32:19.844Z,100912.25
2024-01-06T16:34:48.232Z,100910.09
2024-01-06T16:37:15.295Z,100917.56
2024-01-06T16:39:41.762Z,100914.63
2024-01-06T16:42:08.182Z,100915.41
2024-01-06T16:44:35.363Z,100918.31
2024-01-06T16:47:01.951Z,100925.03
2024-01-06T16:49:28.866Z,100920.03
2024-01-06T16:51:55.697Z,100926.00
2024-01-06T16:54:22.404Z,100924.66
2024-01-06T16:56:48.849Z,100924.56
2024-01-06T16:59:15.416Z,100928.59
2024-01-06T17:01:41.934Z,100941.22
2024-01-06T17:04:08.989Z,100943.03
2024-01-06T17:06:35.569Z,100937.06
2024-01-06T17:09:02.007Z,100932.56
2024-01-06T17:11:28.461Z,100947.59
2024-01-06T17:13:54.955Z,100945.72
2024-01-06T17:16:21.369Z,100945.47
2024-01-06T17:18:47.922Z,100952.78
2024-01-06T17:21:16.988Z,100949.19
2024-01-06T17:23:44.888Z,100953.53
2024-01-06T17:26:12.125Z,100955.66
2024-01-06T17:28:38.634Z,100960.16
2024-01-06T17:31:05.253Z,100961.28
2024-01-06T17:33:32.020Z,100968.97
2024-01-06T17:35:58.554Z,100975.16
2024-01-06T17:38:24.974Z,100989.22
2024-01-06T17:40:51.473Z,100982.09
2024-01-06T17:43:18.184Z,100984.75
2024-01-06T17:45:44.687Z,100990.41
2024-01-06T17:48:13.937Z,100988.34
2024-01-06T17:50:40.430Z,100994.72
2024-01-06T17:53:07.040Z,100986.81
2024-01-06T17:55:33.489Z,100998.69
2024-01-06T17:57:59.977Z,100998.66
2024-01-06T18:00:26.586Z,101001.13
2024-01-06T18:02:53.064Z,101000.22
2024-01-06T18:05:20.309Z,101001.31
2024-01-06T18:07:46.901Z,101003.75
2024-01-06T18:10:13.486Z,101015.31
2024-01-06T18:12:42.320Z,101012.66
2024-01-06T18:15:08.857Z,101019.09
2024-01-06T18:17:36.557Z,101023.75
2024-01-06T18:20:04.819Z,101016.34
2024-01-06T18:22:32.163Z,101021.75
2024-01-06T18:24:58.801Z,101024.69
2024-01-06T18:27:25.455Z,101029.28
2024-01-06T18:29:51.909Z,101030.44
2024-01-06T18:32:18.586Z,101033.13
2024-01-06T18:34:47.228Z,101038.56
2024-01-06T18:37:14.808Z,101042.31
2024-01-06T18:39:41.809Z,101038.31
2024-01-06T18:42:14.572Z,101048.28
2024-01-06T18:44:41.559Z,101047.53
2024-01-06T18:47:11.969Z,101055.06
2024-01-06T18:49:38.477Z,101058.66
2024-01-06T18:52:04.978Z,101064.25
2024-01-06T18:54:35.144Z,101065.81
2024-01-06T18:57:05.407Z,101067.31
2024-01-06T18:59:31.827Z,101070.34
2024-01-06T19:01:58.319Z,101071.59
2024-01-06T19:04:24.768Z,101074.88
2024-01-06T19:06:51.252Z,101077.56
2024-01-06T19:09:17.781Z,101078.13
2024-01-06T19:11:44.325Z,101082.66
2024-01-06T19:14:10.806Z,101083.50
2024-01-06T19:16:38.000Z,101090.19
2024-01-06T19:19:04.978Z,101099.38
2024-01-06T19:21:31.687Z,101103.66
2024-01-06T19:23:58.094Z,101102.19
2024-01-06T19:26:24.611Z,101108.09
2024-01-06T19:28:51.002Z,101104.22
2024-01-06T19:31:17.510Z,101106.44
2024-01-06T19:33:44.077Z,101110.75
2024-01-06T19:36:10.912Z,101111.47
2024-01-06T19:38:37.994Z,101113.97
2024-01-06T19:41:04.584Z,101111.59
2024-01-06T19:43:32.978Z,101118.88
2024-01-06T19:46:02.439Z,101111.31
2024-01-06T19:48:29.189Z,101114.31
2024-01-06T19:50:55.752Z,101123.72
2024-01-06T19:53:22.194Z,101132.03
2024-01-06T19:55:48.593Z,101138.53
2024-01-06T19:58:14.982Z,101145.03
2024-01-06T20:00:41.948Z,101142.84
2024-01-06T20:03:10.112Z,101148.50
2024-01-06T20:05:38.152Z,101156.84
2024-01-06T20:08:05.081Z,101171.41
2024-01-06T20:10:31.479Z,101154.75
2024-01-06T20:12:58.128Z,101160.72
2024-01-06T20:15:24.738Z,101163.63
2024-01-06T20:17:51.867Z,101170.66
2024-01-06T20:20:19.391Z,101175.19
2024-01-06T20:22:47.713Z,101173.06
2024-01-06T20:25:14.291Z,101174.41
2024-01-06T20:27:41.032Z,101179.25
2024-01-06T20:30:08.178Z,101176.66
2024-01-06T20:32:38.092Z,101183.38
2024-01-06T20:35:08.775Z,101183.38
2024-01-06T20:37:35.422Z,101186.06
2024-01-06T20:40:02.022Z,101188.75
2024-01-06T20:42:31.091Z,101192.25
2024-01-06T20:44:57.609Z,101197.09
2024-01-06T20:47:24.092Z,101189.53
2024-01-06T20:49:50.585Z,101190.88
2024-01-06T20:52:17.053Z,101194.13
2024-01-06T20:54:43.544Z,101192.50
2024-01-06T20:57:10.918Z,101207.03
2024-01-06T20:59:37.460Z,101202.44
2024-01-06T21:02:04.665Z,101212.69
2024-01-06T21:04:31.118Z,101206.03
2024-01-06T21:06:57.668Z,101210.84
2024-01-06T21:09:27.101Z,101212.75
2024-01-06T21:11:55.338Z,101221.44
2024-01-06T21:14:22.547Z,101225.47
2024-01-06T21:16:51.495Z,101213.59
2024-01-06T21:19:19.568Z,101217.94
2024-01-06T21:21:46.197Z,101223.59
2024-01-06T21:24:12.730Z,101222.31
2024-01-06T21:26:39.330Z,101224.41
2024-01-06T21:29:06.252Z,101227.16
2024-01-06T21:31:33.038Z,101230.88
2024-01-06T21:33:59.674Z,101233.84
2024-01-06T21:36:26.760Z,101237.38
2024-01-06T21:38:53.403Z,101247.63
2024-01-06T21:41:21.143Z,101254.34
2024-01-06T21:43:47.612Z,101248.94
2024-01-06T21:46:14.100Z,101248.69
2024-01-06T21:48:40.806Z,101258.69
2024-01-06T21:51:07.756Z,101265.41
2024-01-06T21:53:34.209Z,101262.41
2024-01-06T21:56:00.763Z,101271.59
2024-01-06T21:58:27.143Z,101263.22
2024-01-06T22:00:55.741Z,101270.25
2024-01-06T22:03:22.422Z,101264.06
2024-01-06T22:05:49.163Z,101270.00
2024-01-06T22:08:15.653Z,101270.81
2024-01-06T22:10:42.152Z,101276.47
2024-01-06T22:13:08.680Z,101274.34
2024-01-06T22:15:36.547Z,101269.50
2024-01-06T22:18:03.506Z,101272.69
2024-01-06T22:20:30.044Z,101272.41
2024-01-06T22:22:57.709Z,101281.09
2024-01-06T22:25:24.198Z,101279.19
2024-01-06T22:27:50.925Z,101284.06
2024-01-06T22:30:18.200Z,101289.75
2024-01-06T22:32:48.143Z,101297.00
2024-01-06T22:35:15.417Z,101306.47
2024-01-06T22:37:42.658Z,101309.69
2024-01-06T22:40:09.713Z,101305.66
2024-01-06T22:42:36.258Z,101319.13
2024-01-06T22:45:02.814Z,101319.41
2024-01-06T22:47:29.392Z,101315.06
2024-01-06T22:49:55.869Z,101325.34
2024-01-06T22:52:22.439Z,101326.94
2024-01-06T22:54:49.134Z,101323.69
2024-01-06T22:57:15.689Z,101328.56
2024-01-06T22:59:42.176Z,101335.56
2024-01-06T23:02:08.786Z,101343.66
2024-01-06T23:04:35.387Z,101338.78
2024-01-06T23:07:02.036Z,101335.81
2024-01-06T23:09:28.610Z,101343.94
2024-01-06T23:11:55.693Z,101344.19
2024-01-06T23:14:22.443Z,101340.41
2024-01-06T23:16:49.013Z,101365.22
2024-01-06T23:19:15.711Z,101358.16
2024-01-06T23:21:43.908Z,101360.34
2024-01-06T23:24:10.575Z,101346.34
2024-01-06T23:26:37.097Z,101366.03
2024-01-06T23:29:03.576Z,101362.53
2024-01-06T23:31:30.133Z,101363.03
2024-01-06T23:33:56.758Z,101375.19
2024-01-06T23:36:23.247Z,101378.69
2024-01-06T23:38:49.705Z,101384.06
2024-01-06T23:41:16.228Z,101385.13
2024-01-06T23:43:42.650Z,101388.88
2024-01-06T23:46:09.045Z,101394.34
2024-01-06T23:48:35.982Z,101392.72
2024-01-06T23:51:02.513Z,101401.34
2024-01-06T23:53:28.939Z,101410.53
2024-01-06T23:55:55.971Z,101405.66
2024-01-06T23:58:22.366Z,101406.19
